createdAt,value
2019-01-16T00:01:31.994Z,6.50
2019-01-16T00:04:38.164Z,6.50
2019-01-16T00:07:29.203Z,6.50
2019-01-16T00:10:11.990Z,6.50
2019-01-16T00:12:50.241Z,6.60
2019-01-16T00:15:36.895Z,6.60
2019-01-16T00:18:40.085Z,6.60
2019-01-16T00:21:17.799Z,6.60
2019-01-16T00:24:04.418Z,6.60
2019-01-16T00:26:51.286Z,6.60
2019-01-16T00:29:39.326Z,6.60
2019-01-16T00:32:39.582Z,6.60
2019-01-16T00:35:27.765Z,6.50
2019-01-16T00:38:30.865Z,6.60
2019-01-16T00:41:18.942Z,6.50
2019-01-16T00:44:05.506Z,6.50
2019-01-16T00:46:41.825Z,6.50
2019-01-16T00:49:29.554Z,6.50
2019-01-16T00:52:13.299Z,6.50
2019-01-16T00:54:55.487Z,6.50
2019-01-16T00:57:58.770Z,6.50
2019-01-16T01:00:45.212Z,6.50
2019-01-16T01:03:51.380Z,6.50
2019-01-16T01:06:57.651Z,6.50
2019-01-16T01:09:48.542Z,6.50
2019-01-16T01:12:45.429Z,6.40
2019-01-16T01:15:32.122Z,6.50
2019-01-16T01:18:19.238Z,6.40
2019-01-16T01:21:13.173Z,6.40
2019-01-16T01:23:52.401Z,6.40
2019-01-16T01:26:40.294Z,6.40
2019-01-16T01:29:16.495Z,6.40
2019-01-16T01:32:02.158Z,6.40
2019-01-16T01:34:53.214Z,6.40
2019-01-16T01:37:41.162Z,6.40
2019-01-16T01:40:36.532Z,6.30
2019-01-16T01:43:23.335Z,6.30
2019-01-16T01:46:17.554Z,6.40
2019-01-16T01:49:05.473Z,6.40
2019-01-16T01:51:52.032Z,6.30
2019-01-16T01:54:33.123Z,6.30
2019-01-16T01:57:11.520Z,6.30
2019-01-16T02:00:05.697Z,6.30
2019-01-16T02:02:47.206Z,6.30
2019-01-16T02:05:33.919Z,6.30
2019-01-16T02:08:18.879Z,6.30
2019-01-16T02:11:06.616Z,6.30
2019-01-16T02:13:58.308Z,6.30
2019-01-16T02:16:43.000Z,6.30
2019-01-16T02:19:26.101Z,6.20
2019-01-16T02:22:32.275Z,6.20
2019-01-16T02:25:10.155Z,6.20
2019-01-16T02:28:04.051Z,6.20
2019-01-16T02:31:00.926Z,6.30
2019-01-16T02:33:41.246Z,6.30
2019-01-16T02:36:32.464Z,6.30
2019-01-16T02:39:35.778Z,6.30
2019-01-16T02:42:24.424Z,6.30
2019-01-16T02:45:21.651Z,6.30
2019-01-16T02:48:09.575Z,6.30
2019-01-16T02:50:46.449Z,6.30
2019-01-16T02:53:27.554Z,6.30
2019-01-16T02:56:14.236Z,6.30
2019-01-16T02:58:53.281Z,6.30
2019-01-16T03:01:47.100Z,6.40
2019-01-16T03:04:33.838Z,6.40
2019-01-16T03:07:10.325Z,6.40
2019-01-16T03:09:56.117Z,6.40
2019-01-16T03:12:46.891Z,6.40
2019-01-16T03:15:33.545Z,6.40
2019-01-16T03:18:30.870Z,6.40
2019-01-16T03:21:17.656Z,6.40
2019-01-16T03:24:07.262Z,6.40
2019-01-16T03:26:54.219Z,6.40
2019-01-16T03:29:42.106Z,6.40
2019-01-16T03:32:37.307Z,6.40
2019-01-16T03:35:20.185Z,6.40
2019-01-16T03:38:06.820Z,6.40
2019-01-16T03:40:53.637Z,6.40
2019-01-16T03:43:33.473Z,6.40
2019-01-16T03:46:20.405Z,6.40
2019-01-16T03:49:13.841Z,6.50
2019-01-16T03:51:58.629Z,6.40
2019-01-16T03:54:45.838Z,6.40
2019-01-16T03:57:29.658Z,6.50
2019-01-16T04:00:17.568Z,6.50
2019-01-16T04:03:20.417Z,6.50
2019-01-16T04:06:23.632Z,6.50
2019-01-16T04:09:10.441Z,6.50
2019-01-16T04:11:58.409Z,6.50
2019-01-16T04:14:37.146Z,6.50
2019-01-16T04:17:25.059Z,6.50
2019-01-16T04:20:04.414Z,6.50
2019-01-16T04:22:45.815Z,6.50
2019-01-16T04:25:32.515Z,6.50
2019-01-16T04:28:25.263Z,6.50
2019-01-16T04:31:14.717Z,6.50
2019-01-16T04:34:15.010Z,6.50
2019-01-16T04:37:00.730Z,6.50
2019-01-16T04:39:46.552Z,6.50
2019-01-16T04:42:22.877Z,6.50
2019-01-16T04:45:01.199Z,6.50
2019-01-16T04:47:52.207Z,6.50
2019-01-16T04:50:38.660Z,6.50
2019-01-16T04:53:25.750Z,6.50
2019-01-16T04:56:20.713Z,6.40
2019-01-16T04:59:17.759Z,6.50
2019-01-16T05:02:05.631Z,6.40
2019-01-16T05:04:51.905Z,6.40
2019-01-16T05:07:38.862Z,6.40
2019-01-16T05:10:21.111Z,6.40
2019-01-16T05:13:01.662Z,6.40
2019-01-16T05:15:48.385Z,6.40
2019-01-16T05:18:43.167Z,6.50
2019-01-16T05:21:21.998Z,6.50
2019-01-16T05:24:00.606Z,6.50
2019-01-16T05:26:57.488Z,6.50
2019-01-16T05:29:44.090Z,6.60
2019-01-16T05:32:35.174Z,6.60
2019-01-16T05:35:18.196Z,6.60
2019-01-16T05:38:09.175Z,6.50
2019-01-16T05:40:55.762Z,6.60
2019-01-16T05:43:32.040Z,6.60
2019-01-16T05:46:19.178Z,6.60
2019-01-16T05:49:07.703Z,6.60
2019-01-16T05:52:07.966Z,6.60
2019-01-16T05:54:54.680Z,6.60
2019-01-16T05:57:42.648Z,6.60
2019-01-16T06:00:30.882Z,6.60
2019-01-16T06:03:17.522Z,6.60
2019-01-16T06:06:10.075Z,6.60
2019-01-16T06:08:54.850Z,6.70
2019-01-16T06:11:48.636Z,6.70
2019-01-16T06:14:42.592Z,6.70
2019-01-16T06:17:42.531Z,6.70
2019-01-16T06:20:39.034Z,6.70
2019-01-16T06:23:29.860Z,6.70
2019-01-16T06:26:08.887Z,6.70
2019-01-16T06:28:53.991Z,6.70
2019-01-16T06:31:35.302Z,6.70
2019-01-16T06:34:22.404Z,6.70
2019-01-16T06:37:08.902Z,6.70
2019-01-16T06:39:51.978Z,6.60
2019-01-16T06:42:38.890Z,6.60
2019-01-16T06:45:33.263Z,6.60
2019-01-16T06:48:24.266Z,6.60
2019-01-16T06:51:21.391Z,6.60
2019-01-16T06:53:56.958Z,6.60
2019-01-16T06:56:49.510Z,6.60
2019-01-16T06:59:40.247Z,6.60
2019-01-16T07:02:26.852Z,6.60
2019-01-16T07:05:13.760Z,6.60
2019-01-16T07:07:56.947Z,6.70
2019-01-16T07:10:43.887Z,6.60
2019-01-16T07:13:27.833Z,6.60
2019-01-16T07:16:24.788Z,6.60
2019-01-16T07:19:11.611Z,6.60
2019-01-16T07:21:55.405Z,6.60
2019-01-16T07:24:42.453Z,6.50
2019-01-16T07:27:33.417Z,6.50
2019-01-16T07:30:20.136Z,6.50
2019-01-16T07:33:01.471Z,6.50
2019-01-16T07:35:48.162Z,6.40
2019-01-16T07:38:29.082Z,6.40
2019-01-16T07:41:17.001Z,6.40
2019-01-16T07:44:03.519Z,6.30
2019-01-16T07:46:41.530Z,6.30
2019-01-16T07:49:38.730Z,6.30
2019-01-16T07:52:26.363Z,6.30
2019-01-16T07:55:13.368Z,6.30
2019-01-16T07:58:00.220Z,6.30
2019-01-16T08:00:51.251Z,6.30
2019-01-16T08:03:48.059Z,6.30
2019-01-16T08:06:40.605Z,6.30
2019-01-16T08:09:25.724Z,6.30
2019-01-16T08:12:14.348Z,6.30
2019-01-16T08:15:03.779Z,6.30
2019-01-16T08:17:58.887Z,6.30
2019-01-16T08:21:02.021Z,6.30
2019-01-16T08:23:56.644Z,6.30
2019-01-16T08:26:37.055Z,6.30
2019-01-16T08:29:29.715Z,6.30
2019-01-16T08:32:25.917Z,6.30
2019-01-16T08:35:01.884Z,6.30
2019-01-16T08:37:48.905Z,6.30
2019-01-16T08:40:35.860Z,6.30
2019-01-16T08:43:21.492Z,6.30
2019-01-16T08:46:01.851Z,6.30
2019-01-16T08:48:41.592Z,6.30
2019-01-16T08:51:35.800Z,6.30
2019-01-16T08:54:22.800Z,6.30
2019-01-16T08:57:18.826Z,6.20
2019-01-16T09:00:12.579Z,6.20
2019-01-16T09:02:59.609Z,6.20
2019-01-16T09:05:54.005Z,6.20
2019-01-16T09:08:41.016Z,6.20
2019-01-16T09:11:29.704Z,6.20
2019-01-16T09:14:26.734Z,6.20
2019-01-16T09:17:09.618Z,6.20
2019-01-16T09:19:47.656Z,6.10
2019-01-16T09:22:35.564Z,6.10
2019-01-16T09:25:23.049Z,6.10
2019-01-16T09:28:09.282Z,6.10
2019-01-16T09:31:01.533Z,6.10
2019-01-16T09:33:50.386Z,6.10
2019-01-16T09:36:30.940Z,6.20
2019-01-16T09:39:17.840Z,6.20
2019-01-16T09:42:15.312Z,6.20
2019-01-16T09:45:14.405Z,6.20
2019-01-16T09:48:17.666Z,6.20
2019-01-16T09:51:05.856Z,6.30
2019-01-16T09:54:03.770Z,6.30
2019-01-16T09:57:01.052Z,6.30
2019-01-16T09:59:51.106Z,6.30
2019-01-16T10:02:50.837Z,6.40
2019-01-16T10:05:38.022Z,6.50
2019-01-16T10:08:24.858Z,6.50
2019-01-16T10:11:13.312Z,6.50
2019-01-16T10:14:00.218Z,6.60
2019-01-16T10:16:54.167Z,6.60
2019-01-16T10:19:48.423Z,6.60
2019-01-16T10:22:28.362Z,6.60
2019-01-16T10:25:10.686Z,6.60
2019-01-16T10:27:57.320Z,6.60
2019-01-16T10:30:41.819Z,6.60
2019-01-16T10:33:35.422Z,6.60
2019-01-16T10:36:30.505Z,6.70
2019-01-16T10:39:24.552Z,6.70
2019-01-16T10:42:30.922Z,6.70
2019-01-16T10:45:09.507Z,6.70
2019-01-16T10:47:47.205Z,6.70
2019-01-16T10:50:38.311Z,6.70
2019-01-16T10:53:20.950Z,6.70
2019-01-16T10:55:59.387Z,6.70
2019-01-16T10:58:42.459Z,6.70
2019-01-16T11:01:26.287Z,6.70
2019-01-16T11:04:07.347Z,6.70
2019-01-16T11:06:48.138Z,6.70
2019-01-16T11:09:27.292Z,6.70
2019-01-16T11:12:24.570Z,6.70
2019-01-16T11:15:21.689Z,6.70
2019-01-16T11:18:06.578Z,6.70
2019-01-16T11:21:00.736Z,6.70
2019-01-16T11:23:46.412Z,6.60
2019-01-16T11:26:40.609Z,6.70
2019-01-16T11:29:46.778Z,6.70
2019-01-16T11:32:28.520Z,6.60
2019-01-16T11:35:06.233Z,6.60
2019-01-16T11:38:06.022Z,6.70
2019-01-16T11:40:54.035Z,6.70
2019-01-16T11:43:42.260Z,6.60
2019-01-16T11:46:23.814Z,6.60
2019-01-16T11:49:10.705Z,6.60
2019-01-16T11:51:57.609Z,6.60
2019-01-16T11:54:44.652Z,6.60
2019-01-16T11:57:26.367Z,6.50
2019-01-16T12:00:13.411Z,6.40
2019-01-16T12:03:07.427Z,6.40
2019-01-16T12:05:57.343Z,6.40
2019-01-16T12:08:55.409Z,6.30
2019-01-16T12:11:32.278Z,6.30
2019-01-16T12:14:19.149Z,6.40
2019-01-16T12:17:05.973Z,6.40
2019-01-16T12:19:59.972Z,6.30
2019-01-16T12:22:38.310Z,6.30
2019-01-16T12:25:25.536Z,6.30
2019-01-16T12:28:14.360Z,6.30
2019-01-16T12:31:05.136Z,6.30
2019-01-16T12:33:51.653Z,6.30
2019-01-16T12:36:38.439Z,6.40
2019-01-16T12:39:37.402Z,6.40
2019-01-16T12:42:37.980Z,6.30
2019-01-16T12:45:24.741Z,6.20
2019-01-16T12:48:05.069Z,6.10
2019-01-16T12:51:02.064Z,6.10
2019-01-16T12:53:52.827Z,6.10
2019-01-16T12:56:37.371Z,6.10
2019-01-16T12:59:36.619Z,6.10
2019-01-16T13:02:33.979Z,6.00
2019-01-16T13:05:37.170Z,6.10
2019-01-16T13:08:38.744Z,6.10
2019-01-16T13:11:45.021Z,6.10
2019-01-16T13:14:30.047Z,6.10
2019-01-16T13:17:14.661Z,6.10
2019-01-16T13:20:14.099Z,6.10
2019-01-16T13:23:01.017Z,6.10
2019-01-16T13:25:53.770Z,6.10
2019-01-16T13:28:40.296Z,6.10
2019-01-16T13:31:30.158Z,6.10
2019-01-16T13:34:17.022Z,6.00
2019-01-16T13:37:07.840Z,6.00
2019-01-16T13:39:49.534Z,6.10
2019-01-16T13:42:25.892Z,6.10
2019-01-16T13:45:09.723Z,6.00
2019-01-16T13:48:04.441Z,6.00
2019-01-16T13:50:51.076Z,6.00
2019-01-16T13:53:42.117Z,6.00
2019-01-16T13:56:32.942Z,5.90
2019-01-16T13:59:20.160Z,5.90
2019-01-16T14:02:05.949Z,5.90
2019-01-16T14:04:49.442Z,6.00
2019-01-16T14:07:40.507Z,6.00
2019-01-16T14:10:32.118Z,6.00
2019-01-16T14:13:18.703Z,6.00
2019-01-16T14:16:05.295Z,6.00
2019-01-16T14:18:46.581Z,6.00
2019-01-16T14:21:28.978Z,6.00
2019-01-16T14:24:17.051Z,6.00
2019-01-16T14:27:03.995Z,5.90
2019-01-16T14:30:07.374Z,5.90
2019-01-16T14:32:54.328Z,5.90
2019-01-16T14:35:41.521Z,5.80
2019-01-16T14:38:38.859Z,5.80
2019-01-16T14:41:32.286Z,5.80
2019-01-16T14:44:20.337Z,5.80
2019-01-16T14:47:06.283Z,5.80
2019-01-16T14:49:47.238Z,5.80
2019-01-16T14:52:38.319Z,5.80
2019-01-16T14:55:27.673Z,5.80
2019-01-16T14:58:14.613Z,5.70
2019-01-16T15:00:55.960Z,5.70
2019-01-16T15:03:40.151Z,5.70
2019-01-16T15:06:18.306Z,5.70
2019-01-16T15:09:24.458Z,5.70
2019-01-16T15:12:12.661Z,5.70
2019-01-16T15:14:53.875Z,5.70
2019-01-16T15:17:52.375Z,5.70
2019-01-16T15:20:46.235Z,5.70
2019-01-16T15:23:38.077Z,5.60
2019-01-16T15:26:32.255Z,5.60
2019-01-16T15:29:18.359Z,5.60
2019-01-16T15:32:05.978Z,5.60
2019-01-16T15:34:52.838Z,5.60
2019-01-16T15:37:50.045Z,5.60
2019-01-16T15:40:28.931Z,5.60
2019-01-16T15:43:15.885Z,5.60
2019-01-16T15:46:16.063Z,5.60
2019-01-16T15:49:12.975Z,5.60
2019-01-16T15:52:19.147Z,5.60
2019-01-16T15:55:13.361Z,5.60
2019-01-16T15:58:02.542Z,5.60
2019-01-16T16:00:43.787Z,5.60
2019-01-16T16:03:19.403Z,5.50
2019-01-16T16:06:05.998Z,5.50
2019-01-16T16:08:54.129Z,5.50
2019-01-16T16:11:42.855Z,5.50
2019-01-16T16:14:33.534Z,5.50
2019-01-16T16:17:24.565Z,5.50
2019-01-16T16:20:24.717Z,5.40
2019-01-16T16:23:03.206Z,5.40
2019-01-16T16:25:39.896Z,5.40
2019-01-16T16:28:34.125Z,5.30
2019-01-16T16:31:19.165Z,5.30
2019-01-16T16:33:58.082Z,5.30
2019-01-16T16:36:44.903Z,5.30
2019-01-16T16:39:31.722Z,5.30
2019-01-16T16:42:28.861Z,5.20
2019-01-16T16:45:22.719Z,5.20
2019-01-16T16:48:01.534Z,5.20
2019-01-16T16:50:42.391Z,5.20
2019-01-16T16:53:33.254Z,5.20
2019-01-16T16:56:20.163Z,5.20
2019-01-16T16:59:07.057Z,5.10
2019-01-16T17:01:58.094Z,5.20
2019-01-16T17:05:01.515Z,5.20
2019-01-16T17:07:40.687Z,5.20
2019-01-16T17:10:17.818Z,5.20
2019-01-16T17:13:00.366Z,5.20
2019-01-16T17:15:47.432Z,5.20
2019-01-16T17:18:39.404Z,5.30
2019-01-16T17:21:23.097Z,5.30
2019-01-16T17:24:04.116Z,5.30
2019-01-16T17:27:10.609Z,5.20
2019-01-16T17:29:56.689Z,5.20
2019-01-16T17:32:51.468Z,5.20
2019-01-16T17:35:45.580Z,5.20
2019-01-16T17:38:21.670Z,5.20
2019-01-16T17:41:09.148Z,5.20
2019-01-16T17:44:06.535Z,5.20
2019-01-16T17:47:12.446Z,5.20
2019-01-16T17:49:53.211Z,5.20
2019-01-16T17:52:53.943Z,5.20
2019-01-16T17:55:43.142Z,5.20
2019-01-16T17:58:29.635Z,5.20
2019-01-16T18:01:17.833Z,5.30
2019-01-16T18:03:58.739Z,5.30
2019-01-16T18:06:52.986Z,5.20
2019-01-16T18:09:32.536Z,5.30
2019-01-16T18:12:26.307Z,5.30
2019-01-16T18:15:17.177Z,5.30
2019-01-16T18:17:56.349Z,5.20
2019-01-16T18:20:43.134Z,5.20
2019-01-16T18:23:29.782Z,5.30
2019-01-16T18:26:09.620Z,5.30
2019-01-16T18:28:57.507Z,5.30
2019-01-16T18:31:44.369Z,5.20
2019-01-16T18:34:31.252Z,5.30
2019-01-16T18:37:31.683Z,5.30
2019-01-16T18:40:18.496Z,5.30
2019-01-16T18:43:18.736Z,5.30
2019-01-16T18:46:05.702Z,5.30
2019-01-16T18:48:52.562Z,5.30
2019-01-16T18:51:40.570Z,5.30
2019-01-16T18:54:32.690Z,5.30
2019-01-16T18:57:10.885Z,5.30
2019-01-16T18:59:53.435Z,5.30
2019-01-16T19:02:40.039Z,5.30
2019-01-16T19:05:28.096Z,5.30
2019-01-16T19:08:23.032Z,5.30
2019-01-16T19:11:02.810Z,5.30
2019-01-16T19:13:49.383Z,5.30
2019-01-16T19:16:36.229Z,5.30
2019-01-16T19:19:32.908Z,5.30
2019-01-16T19:22:23.674Z,5.30
2019-01-16T19:25:10.450Z,5.30
2019-01-16T19:28:00.039Z,5.30
2019-01-16T19:30:48.139Z,5.30
2019-01-16T19:33:34.962Z,5.30
2019-01-16T19:36:21.875Z,5.30
2019-01-16T19:39:08.763Z,5.30
2019-01-16T19:41:56.702Z,5.30
2019-01-16T19:44:56.807Z,5.30
2019-01-16T19:47:44.757Z,5.30
2019-01-16T19:50:33.738Z,5.30
2019-01-16T19:53:31.006Z,5.30
2019-01-16T19:56:07.866Z,5.40
2019-01-16T19:58:53.169Z,5.30
2019-01-16T20:01:39.975Z,5.40
2019-01-16T20:04:26.799Z,5.30
2019-01-16T20:07:04.144Z,5.30
2019-01-16T20:10:04.242Z,5.30
2019-01-16T20:12:51.032Z,5.30
2019-01-16T20:15:27.162Z,5.40
2019-01-16T20:18:24.302Z,5.40
2019-01-16T20:21:11.162Z,5.30
2019-01-16T20:24:11.435Z,5.40
2019-01-16T20:27:02.506Z,5.40
2019-01-16T20:29:48.870Z,5.40
2019-01-16T20:32:35.776Z,5.40
2019-01-16T20:35:18.662Z,5.40
2019-01-16T20:37:57.266Z,5.40
2019-01-16T20:41:03.696Z,5.40
2019-01-16T20:43:52.274Z,5.40
2019-01-16T20:46:52.214Z,5.40
2019-01-16T20:49:38.749Z,5.40
2019-01-16T20:52:28.615Z,5.40
2019-01-16T20:55:13.867Z,5.40
2019-01-16T20:58:07.860Z,5.40
2019-01-16T21:01:08.206Z,5.40
2019-01-16T21:03:55.052Z,5.50
2019-01-16T21:06:38.511Z,5.50
2019-01-16T21:09:18.476Z,5.40
2019-01-16T21:12:06.366Z,5.40
2019-01-16T21:14:47.167Z,5.40
2019-01-16T21:17:29.474Z,5.40
2019-01-16T21:20:23.549Z,5.40
2019-01-16T21:23:23.685Z,5.40
2019-01-16T21:26:19.369Z,5.40
2019-01-16T21:28:57.907Z,5.40
2019-01-16T21:31:35.801Z,5.40
2019-01-16T21:34:22.524Z,5.40
2019-01-16T21:37:04.627Z,5.40
2019-01-16T21:39:51.465Z,5.40
2019-01-16T21:42:36.881Z,5.40
2019-01-16T21:45:45.154Z,5.40
2019-01-16T21:48:22.359Z,5.40
2019-01-16T21:51:09.318Z,5.40
2019-01-16T21:53:47.298Z,5.40
2019-01-16T21:56:34.277Z,5.40
2019-01-16T21:59:14.569Z,5.40
2019-01-16T22:02:07.939Z,5.40
2019-01-16T22:04:55.969Z,5.40
2019-01-16T22:07:42.915Z,5.40
2019-01-16T22:10:43.137Z,5.40
2019-01-16T22:13:31.097Z,5.50
2019-01-16T22:16:20.775Z,5.40
2019-01-16T22:19:17.778Z,5.40
2019-01-16T22:21:54.687Z,5.40
2019-01-16T22:24:39.805Z,5.40
2019-01-16T22:27:26.301Z,5.40
2019-01-16T22:30:16.410Z,5.50
2019-01-16T22:33:02.930Z,5.50
2019-01-16T22:35:53.943Z,5.50
2019-01-16T22:38:42.251Z,5.50
2019-01-16T22:41:31.717Z,5.50
2019-01-16T22:44:09.330Z,5.50
2019-01-16T22:46:56.179Z,5.50
2019-01-16T22:49:43.106Z,5.50
2019-01-16T22:52:23.702Z,5.50
2019-01-16T22:55:13.593Z,5.50
2019-01-16T22:57:52.608Z,5.50
2019-01-16T23:00:45.466Z,5.50
2019-01-16T23:03:27.642Z,5.50
2019-01-16T23:06:09.050Z,5.50
2019-01-16T23:08:54.319Z,5.50
2019-01-16T23:11:51.215Z,5.40
2019-01-16T23:14:48.818Z,5.50
2019-01-16T23:17:35.508Z,5.50
2019-01-16T23:20:16.095Z,5.50
2019-01-16T23:22:53.807Z,5.50
2019-01-16T23:25:41.410Z,5.40
2019-01-16T23:28:35.442Z,5.50
2019-01-16T23:31:26.403Z,5.40
2019-01-16T23:34:21.532Z,5.40
2019-01-16T23:37:00.467Z,5.40
2019-01-16T23:39:46.974Z,5.40
2019-01-16T23:42:34.958Z,5.30
2019-01-16T23:45:22.382Z,5.30
2019-01-16T23:48:09.116Z,5.30
2019-01-16T23:51:05.832Z,5.20
2019-01-16T23:53:58.716Z,5.20
2019-01-16T23:56:53.278Z,5.10
2019-01-16T23:59:37.010Z,5.10
